Time;durP1;ratioP1;P1;durP2;ratioP2;P2;SDS_P1;SDS_P2;PMS_P1;PMS_P2;Temp;Humidity;BMP_temperature;BMP_pressure;BME280_temperature;BME280_humidity;BME280_pressure;Samples;Min_cycle;Max_cycle;Signal;HPM_P1;HPM_P2
2022/05/11 00:01:52;;;;;;;4.90;4.50;;;13.40;99.90;;;;;;4942253;28;90200;-35
2022/05/11 00:04:18;;;;;;;5.97;4.75;;;13.50;99.90;;;;;;4942367;28;88983;-34
2022/05/11 00:06:44;;;;;;;6.25;4.07;;;13.40;99.90;;;;;;4942395;28;89393;-35
2022/05/11 00:09:12;;;;;;;5.07;4.55;;;13.40;99.90;;;;;;4942828;28;87522;-36
2022/05/11 00:11:38;;;;;;;4.95;4.18;;;13.40;99.90;;;;;;4942171;28;90303;-35
2022/05/11 00:14:04;;;;;;;4.82;3.83;;;13.50;99.90;;;;;;4942787;28;89501;-38
2022/05/11 00:16:31;;;;;;;4.82;4.32;;;13.50;99.90;;;;;;4943058;28;89482;-35
2022/05/11 00:18:57;;;;;;;4.20;3.88;;;13.50;99.90;;;;;;4942141;28;89058;-35
2022/05/11 00:21:23;;;;;;;8.63;5.30;;;13.50;99.90;;;;;;4942820;28;90297;-34
2022/05/11 00:23:50;;;;;;;6.88;4.38;;;13.50;99.90;;;;;;4941014;28;91704;-36
2022/05/11 00:26:15;;;;;;;6.13;4.63;;;13.60;99.90;;;;;;4942026;28;90550;-37
2022/05/11 00:28:41;;;;;;;9.20;4.82;;;13.60;99.90;;;;;;4942425;28;88005;-35
2022/05/11 00:31:08;;;;;;;6.65;4.70;;;13.50;99.90;;;;;;4941391;28;90334;-35
2022/05/11 00:33:34;;;;;;;4.88;4.38;;;13.60;99.90;;;;;;4942396;28;89764;-34
2022/05/11 00:36:00;;;;;;;7.60;4.57;;;13.60;99.90;;;;;;4941963;28;89865;-35
2022/05/11 00:38:28;;;;;;;11.00;5.20;;;13.60;99.90;;;;;;4941897;28;88847;-33
2022/05/11 00:43:58;;;;;;;6.88;4.63;;;13.60;99.90;;;;;;4939095;28;88836;-39
2022/05/11 00:46:35;;;;;;;5.35;4.72;;;13.60;99.90;;;;;;4942061;28;89503;-35
2022/05/11 00:51:56;;;;;;;5.28;4.78;;;13.60;99.90;;;;;;4940347;28;90214;-36
2022/05/11 00:54:23;;;;;;;8.27;4.05;;;13.60;99.90;;;;;;4941401;28;89145;-36
2022/05/11 00:56:54;;;;;;;4.47;4.07;;;13.60;99.90;;;;;;4941409;28;89668;-34
2022/05/11 00:59:24;;;;;;;6.28;4.40;;;13.60;99.90;;;;;;4941847;28;90281;-37
2022/05/11 01:01:50;;;;;;;7.22;4.57;;;13.60;99.90;;;;;;4940768;28;90278;-35
2022/05/11 01:04:20;;;;;;;5.07;4.57;;;13.60;99.90;;;;;;4941701;28;89430;-38
2022/05/11 01:06:46;;;;;;;10.50;4.50;;;13.60;99.90;;;;;;4941550;28;89446;-35
2022/05/11 01:09:13;;;;;;;5.80;4.43;;;13.60;99.90;;;;;;4942448;28;89754;-36
2022/05/11 01:11:51;;;;;;;7.80;6.03;;;13.60;99.90;;;;;;4940934;28;89251;-35
2022/05/11 01:14:21;;;;;;;6.03;4.68;;;13.60;99.90;;;;;;4940034;28;90389;-37
2022/05/11 01:16:47;;;;;;;10.15;5.55;;;13.60;99.90;;;;;;4940944;28;90286;-37
2022/05/11 01:19:28;;;;;;;7.40;5.22;;;13.60;99.90;;;;;;4942001;28;89579;-34
2022/05/11 01:22:03;;;;;;;6.80;4.95;;;13.50;99.90;;;;;;4940969;28;91080;-36
2022/05/11 01:24:38;;;;;;;7.78;5.07;;;13.50;99.90;;;;;;4941841;28;89496;-36
2022/05/11 01:27:26;;;;;;;8.45;5.90;;;13.50;99.90;;;;;;4940808;28;88405;-36
2022/05/11 01:29:52;;;;;;;6.03;5.18;;;13.50;99.90;;;;;;4940920;28;89134;-36
2022/05/11 01:32:19;;;;;;;10.07;5.60;;;13.50;99.90;;;;;;4941859;28;90618;-38
2022/05/11 01:34:48;;;;;;;6.78;5.75;;;13.50;99.90;;;;;;4941262;28;89692;-35
2022/05/11 01:37:14;;;;;;;11.50;4.97;;;13.50;99.90;;;;;;4941183;28;89666;-34
2022/05/11 01:39:40;;;;;;;6.30;4.90;;;13.50;99.90;;;;;;4940540;28;90256;-37
2022/05/11 01:42:06;;;;;;;6.18;4.80;;;13.60;99.90;;;;;;4940794;28;89304;-35
2022/05/11 01:44:31;;;;;;;6.20;5.60;;;13.50;99.90;;;;;;4940991;28;90371;-36
2022/05/11 01:46:58;;;;;;;5.47;4.93;;;13.50;99.90;;;;;;4941189;28;89202;-38
2022/05/11 01:49:24;;;;;;;10.32;5.55;;;13.50;99.90;;;;;;4941446;28;89082;-35
2022/05/11 01:51:50;;;;;;;6.82;5.93;;;13.60;99.90;;;;;;4940572;28;90188;-37
2022/05/11 01:54:16;;;;;;;5.15;4.75;;;13.50;99.90;;;;;;4941363;28;90061;-35
2022/05/11 01:56:42;;;;;;;12.23;6.15;;;13.50;99.90;;;;;;4941276;28;90183;-35
2022/05/11 01:59:08;;;;;;;7.57;5.25;;;13.50;99.90;;;;;;4940503;28;89401;-39
2022/05/11 02:01:35;;;;;;;6.13;5.53;;;13.50;99.90;;;;;;4941390;28;90311;-34
2022/05/11 02:04:01;;;;;;;5.30;4.67;;;13.50;99.90;;;;;;4939703;28;90115;-35
2022/05/11 02:09:12;;;;;;;11.23;5.82;;;13.50;99.90;;;;;;4941578;28;89729;-34
2022/05/11 02:11:38;;;;;;;6.53;5.20;;;13.50;99.90;;;;;;4940507;28;89915;-35
2022/05/11 02:14:04;;;;;;;7.93;5.82;;;13.60;99.90;;;;;;4940796;28;89664;-36
2022/05/11 02:16:30;;;;;;;8.55;6.03;;;13.60;99.90;;;;;;4940177;28;90688;-37
2022/05/11 02:18:55;;;;;;;8.50;5.65;;;13.60;99.90;;;;;;4940038;28;89488;-37
2022/05/11 02:21:21;;;;;;;7.00;5.40;;;13.60;99.90;;;;;;4941002;28;90000;-36
2022/05/11 02:23:50;;;;;;;8.02;5.88;;;13.60;99.90;;;;;;4939327;28;91313;-35
2022/05/11 02:26:17;;;;;;;6.47;4.90;;;13.60;99.90;;;;;;4940353;28;89180;-36
2022/05/11 02:28:43;;;;;;;8.50;5.75;;;13.60;99.90;;;;;;4939549;28;90332;-38
2022/05/11 02:31:09;;;;;;;10.98;6.22;;;13.60;99.90;;;;;;4939790;28;95311;-36
2022/05/11 02:33:35;;;;;;;9.65;6.35;;;13.60;99.90;;;;;;4939766;28;90084;-37
2022/05/11 02:36:01;;;;;;;9.00;6.82;;;13.60;99.90;;;;;;4940662;28;89398;-36
2022/05/11 02:38:30;;;;;;;5.22;4.72;;;13.60;99.90;;;;;;4940315;28;89743;-35
2022/05/11 02:40:56;;;;;;;7.10;5.32;;;13.60;99.90;;;;;;4939530;28;90097;-36
2022/05/11 02:43:22;;;;;;;6.32;5.15;;;13.60;99.90;;;;;;4939699;28;89642;-38
2022/05/11 02:45:49;;;;;;;9.40;5.60;;;13.60;99.90;;;;;;4939955;28;89513;-35
2022/05/11 02:48:18;;;;;;;9.07;4.90;;;13.60;99.90;;;;;;4940466;28;89447;-33
2022/05/11 02:50:51;;;;;;;9.43;6.13;;;13.60;99.90;;;;;;4939308;28;90214;-35
2022/05/11 02:53:18;;;;;;;7.50;6.10;;;13.60;99.90;;;;;;4939824;28;91203;-36
2022/05/11 02:55:46;;;;;;;7.35;5.32;;;13.60;99.90;;;;;;4939025;28;91025;-34
2022/05/11 02:58:14;;;;;;;8.02;5.53;;;13.60;99.90;;;;;;4940206;28;89484;-36
2022/05/11 03:00:41;;;;;;;7.23;5.53;;;13.60;99.90;;;;;;4940310;28;89742;-35
2022/05/11 03:03:07;;;;;;;8.43;6.28;;;13.50;99.90;;;;;;4939951;28;90080;-36
2022/05/11 03:05:34;;;;;;;7.63;5.32;;;13.50;99.90;;;;;;4939180;28;89523;-37
2022/05/11 03:08:00;;;;;;;12.70;5.25;;;13.60;99.90;;;;;;4939397;28;89572;-36
2022/05/11 03:10:25;;;;;;;4.82;4.35;;;13.60;99.90;;;;;;4940007;28;90636;-33
2022/05/11 03:12:52;;;;;;;6.10;5.50;;;13.60;99.90;;;;;;4939518;28;89860;-35
2022/05/11 03:15:17;;;;;;;9.55;5.30;;;13.60;99.90;;;;;;4941007;28;89837;-38
2022/05/11 03:17:43;;;;;;;5.93;5.05;;;13.60;99.90;;;;;;4942346;28;88846;-33
2022/05/11 03:20:10;;;;;;;7.18;4.68;;;13.60;99.90;;;;;;4943125;28;90307;-37
2022/05/11 03:22:36;;;;;;;7.00;5.18;;;13.60;99.90;;;;;;4943217;28;89517;-36
2022/05/11 03:25:03;;;;;;;7.88;4.95;;;13.60;99.90;;;;;;4942844;28;89317;-35
2022/05/11 03:27:28;;;;;;;5.25;4.70;;;13.60;99.90;;;;;;4943088;28;89027;-35
2022/05/11 03:29:54;;;;;;;6.07;5.47;;;13.60;99.90;;;;;;4943017;28;90499;-34
2022/05/11 03:35:10;;;;;;;5.78;5.05;;;13.60;99.90;;;;;;4922752;28;89378;-34
2022/05/11 03:37:37;;;;;;;6.50;5.32;;;13.60;99.90;;;;;;4943367;28;89491;-38
2022/05/11 03:40:07;;;;;;;8.02;4.93;;;13.60;99.90;;;;;;4942767;28;90186;-34
2022/05/11 03:42:32;;;;;;;6.97;4.88;;;13.60;99.90;;;;;;4942530;28;90313;-35
2022/05/11 03:45:20;;;;;;;8.35;5.43;;;13.60;99.90;;;;;;4942302;28;90716;-34
2022/05/11 03:47:47;;;;;;;13.57;5.18;;;13.60;99.90;;;;;;4943120;28;88033;-35
2022/05/11 03:50:13;;;;;;;8.48;5.15;;;13.60;99.90;;;;;;4942813;28;91065;-35
2022/05/11 03:52:39;;;;;;;5.82;5.32;;;13.60;99.90;;;;;;4942220;28;89670;-36
2022/05/11 03:55:08;;;;;;;8.07;5.22;;;13.50;99.90;;;;;;4924896;28;91128;-37
2022/05/11 03:57:35;;;;;;;8.30;5.85;;;13.60;99.90;;;;;;4942974;28;89752;-38
2022/05/11 04:00:01;;;;;;;5.97;4.68;;;13.60;99.90;;;;;;4942891;28;90713;-36
2022/05/11 04:02:26;;;;;;;6.13;4.93;;;13.60;99.90;;;;;;4942433;28;89913;-34
2022/05/11 04:04:52;;;;;;;4.93;4.50;;;13.60;99.90;;;;;;4942402;28;89618;-38
2022/05/11 04:07:17;;;;;;;9.73;5.75;;;13.60;99.90;;;;;;4942253;28;89711;-35
2022/05/11 04:09:43;;;;;;;8.90;5.18;;;13.50;99.90;;;;;;4941920;28;90034;-38
2022/05/11 04:12:09;;;;;;;6.13;4.10;;;13.50;99.90;;;;;;4942768;28;89488;-34
2022/05/11 04:14:35;;;;;;;5.20;4.68;;;13.50;99.90;;;;;;4941657;28;89472;-36
2022/05/11 04:17:00;;;;;;;6.35;5.13;;;13.50;99.90;;;;;;4925533;28;87672;-34
2022/05/11 04:19:27;;;;;;;7.63;5.40;;;13.50;99.90;;;;;;4942011;28;89177;-36
2022/05/11 04:21:52;;;;;;;6.88;4.55;;;13.50;99.90;;;;;;4941786;28;90913;-39
2022/05/11 04:24:18;;;;;;;6.32;5.13;;;13.50;99.90;;;;;;4942163;28;89626;-34
2022/05/11 04:26:44;;;;;;;6.95;5.03;;;13.50;99.90;;;;;;4940280;28;89835;-34
2022/05/11 04:29:09;;;;;;;9.45;5.15;;;13.50;99.90;;;;;;4942346;28;90110;-35
2022/05/11 04:31:35;;;;;;;8.13;5.47;;;13.50;99.90;;;;;;4941254;28;93184;-36
2022/05/11 04:34:01;;;;;;;7.32;6.38;;;13.50;99.90;;;;;;4941589;28;90494;-36
2022/05/11 04:36:28;;;;;;;6.68;4.85;;;13.50;99.90;;;;;;4942348;28;88204;-37
2022/05/11 04:38:53;;;;;;;6.68;5.20;;;13.60;99.90;;;;;;4941231;28;89305;-33
2022/05/11 04:41:19;;;;;;;5.97;5.07;;;13.60;99.90;;;;;;4942415;28;89906;-34
2022/05/11 04:43:45;;;;;;;8.77;5.72;;;13.60;99.90;;;;;;4940584;28;89598;-36
2022/05/11 04:46:10;;;;;;;7.55;5.68;;;13.60;99.90;;;;;;4942399;28;88608;-38
2022/05/11 04:48:36;;;;;;;8.07;5.55;;;13.60;99.90;;;;;;4941649;28;90441;-36
2022/05/11 04:51:03;;;;;;;6.10;5.25;;;13.60;99.90;;;;;;4941734;28;89904;-34
2022/05/11 04:53:30;;;;;;;8.63;6.03;;;13.60;99.90;;;;;;4943090;28;89268;-34
2022/05/11 04:55:56;;;;;;;8.65;5.00;;;13.50;99.90;;;;;;4940834;28;89733;-33
2022/05/11 04:58:22;;;;;;;7.07;5.35;;;13.60;99.90;;;;;;4942071;28;90235;-35
2022/05/11 05:00:47;;;;;;;6.10;4.85;;;13.60;99.90;;;;;;4941490;28;89862;-36
2022/05/11 05:03:14;;;;;;;7.45;4.82;;;13.60;99.90;;;;;;4941592;28;90498;-35
2022/05/11 05:05:41;;;;;;;7.18;5.40;;;13.70;99.90;;;;;;4942028;28;89552;-38
2022/05/11 05:08:08;;;;;;;14.30;6.25;;;13.70;99.90;;;;;;4941452;28;89682;-35
2022/05/11 05:10:34;;;;;;;8.23;5.75;;;13.70;99.90;;;;;;4941346;28;90331;-35
2022/05/11 05:13:06;;;;;;;6.20;5.10;;;13.70;99.90;;;;;;4941392;28;90238;-38
2022/05/11 05:15:33;;;;;;;11.65;6.55;;;13.70;99.90;;;;;;4941635;28;90053;-34
2022/05/11 05:18:01;;;;;;;7.75;6.40;;;13.80;99.90;;;;;;4941385;28;89257;-34
2022/05/11 05:20:26;;;;;;;7.88;5.78;;;13.80;99.90;;;;;;4941121;28;90824;-34
2022/05/11 05:22:52;;;;;;;8.75;6.57;;;13.80;99.90;;;;;;4940856;28;90780;-37
2022/05/11 05:25:18;;;;;;;19.27;7.18;;;13.80;99.90;;;;;;4941693;28;88018;-35
2022/05/11 05:27:43;;;;;;;9.98;6.30;;;13.90;99.90;;;;;;4940728;28;91716;-36
2022/05/11 05:32:53;;;;;;;13.55;7.20;;;14.00;99.90;;;;;;4940746;28;89800;-33
2022/05/11 05:35:20;;;;;;;14.30;8.93;;;14.00;99.90;;;;;;4940958;28;88539;-35
2022/05/11 05:37:46;;;;;;;13.27;9.15;;;14.10;99.90;;;;;;4923150;28;90113;-34
2022/05/11 05:40:12;;;;;;;15.05;9.95;;;14.10;99.90;;;;;;4941133;28;89863;-34
2022/05/11 05:42:38;;;;;;;16.73;10.23;;;14.20;99.90;;;;;;4940527;28;90204;-35
2022/05/11 05:45:06;;;;;;;13.43;10.88;;;14.30;99.90;;;;;;4922862;28;88883;-37
2022/05/11 05:47:32;;;;;;;9.80;8.80;;;14.30;99.90;;;;;;4940458;28;91545;-35
2022/05/11 05:49:57;;;;;;;15.95;10.88;;;14.40;99.90;;;;;;4940347;28;89963;-33
2022/05/11 05:52:25;;;;;;;22.67;11.93;;;14.50;99.90;;;;;;4940700;28;89565;-37
2022/05/11 05:54:54;;;;;;;18.57;11.30;;;14.60;99.90;;;;;;4939953;28;88508;-35
2022/05/11 05:57:19;;;;;;;23.73;14.07;;;14.70;99.90;;;;;;4940089;28;89481;-35
2022/05/11 05:59:45;;;;;;;15.40;11.60;;;14.80;99.90;;;;;;4939443;28;89268;-35
2022/05/11 06:02:14;;;;;;;27.42;12.00;;;14.70;99.90;;;;;;4940914;28;89844;-36
2022/05/11 06:04:41;;;;;;;14.95;11.07;;;14.80;99.90;;;;;;4940344;28;89327;-36
2022/05/11 06:07:07;;;;;;;15.00;12.57;;;14.80;99.90;;;;;;4939884;28;90557;-38
2022/05/11 06:09:33;;;;;;;17.52;11.27;;;14.90;99.90;;;;;;4939483;28;91848;-37
2022/05/11 06:11:59;;;;;;;15.13;11.25;;;14.90;99.90;;;;;;4939736;28;91493;-34
2022/05/11 06:14:24;;;;;;;13.98;9.07;;;14.90;99.90;;;;;;4939702;28;89287;-36
2022/05/11 06:16:50;;;;;;;11.02;9.45;;;14.90;99.90;;;;;;4940582;28;90111;-37
2022/05/11 06:19:16;;;;;;;14.73;9.45;;;15.00;99.90;;;;;;4940435;28;89895;-37
2022/05/11 06:21:42;;;;;;;14.10;8.52;;;15.00;99.90;;;;;;4940633;28;89524;-38
2022/05/11 06:24:08;;;;;;;14.65;9.45;;;15.00;99.90;;;;;;4940826;28;88043;-37
2022/05/11 06:26:34;;;;;;;11.73;8.00;;;15.00;99.90;;;;;;4939674;28;90303;-35
2022/05/11 06:29:00;;;;;;;8.13;7.32;;;15.00;99.90;;;;;;4940036;28;89990;-35
2022/05/11 06:31:26;;;;;;;13.23;7.13;;;15.10;99.90;;;;;;4939636;28;89809;-33
2022/05/11 06:33:53;;;;;;;19.20;7.85;;;15.20;99.90;;;;;;4940061;28;88844;-36
2022/05/11 06:36:20;;;;;;;31.45;7.75;;;15.30;99.90;;;;;;4940132;28;91315;-34
2022/05/11 06:38:46;;;;;;;8.88;6.72;;;15.40;99.90;;;;;;4940075;28;89709;-34
2022/05/11 06:41:15;;;;;;;12.88;6.75;;;15.50;99.90;;;;;;4940615;28;89344;-37
2022/05/11 06:43:41;;;;;;;12.50;6.93;;;15.50;99.90;;;;;;4939975;28;88515;-37
2022/05/11 06:46:07;;;;;;;11.57;6.15;;;15.60;99.90;;;;;;4939876;28;90179;-35
2022/05/11 06:48:32;;;;;;;7.50;5.53;;;15.70;99.90;;;;;;4939665;28;89597;-35
2022/05/11 06:50:58;;;;;;;18.88;6.38;;;15.90;99.90;;;;;;4939354;28;90249;-35
2022/05/11 06:53:24;;;;;;;19.50;6.25;;;15.90;99.90;;;;;;4940153;28;88186;-37
2022/05/11 07:01:18;;;;;;;9.07;5.75;;;16.10;99.90;;;;;;4938987;28;90527;-38
2022/05/11 07:03:44;;;;;;;8.95;5.65;;;16.10;99.90;;;;;;4940314;28;89193;-36
2022/05/11 07:06:10;;;;;;;8.38;6.20;;;16.10;99.90;;;;;;4939750;28;90274;-35
2022/05/11 07:08:41;;;;;;;8.48;5.38;;;16.40;99.90;;;;;;4940205;28;89789;-35
2022/05/11 07:13:55;;;;;;;13.73;5.97;;;17.30;99.90;;;;;;4940293;28;88514;-33
2022/05/11 07:16:21;;;;;;;6.32;4.30;;;17.30;99.90;;;;;;4940164;28;89710;-34
2022/05/11 07:18:48;;;;;;;16.92;4.35;;;17.50;99.90;;;;;;4939234;28;89913;-34
2022/05/11 07:21:13;;;;;;;9.88;4.82;;;17.40;99.90;;;;;;4940685;28;88444;-34
2022/05/11 07:23:39;;;;;;;6.55;4.22;;;17.30;99.90;;;;;;4939785;28;90659;-34
2022/05/11 07:26:05;;;;;;;7.68;4.18;;;17.10;99.90;;;;;;4939530;28;90282;-37
2022/05/11 07:28:30;;;;;;;11.85;3.97;;;17.10;99.90;;;;;;4940600;28;89751;-35
2022/05/11 07:30:56;;;;;;;5.80;3.45;;;17.10;99.90;;;;;;4939094;28;90726;-35
2022/05/11 07:33:22;;;;;;;11.90;3.60;;;17.20;99.90;;;;;;4940173;28;89195;-34
2022/05/11 07:35:48;;;;;;;3.78;3.05;;;17.30;99.90;;;;;;4936807;28;90184;-36
2022/05/11 07:38:17;;;;;;;11.85;4.20;;;17.70;99.90;;;;;;4936851;28;89964;-35
2022/05/11 07:40:44;;;;;;;8.55;3.10;;;17.70;99.90;;;;;;4937310;28;89129;-37
2022/05/11 07:43:10;;;;;;;6.55;3.72;;;17.60;99.90;;;;;;4938405;28;89163;-34
2022/05/11 07:45:37;;;;;;;7.40;3.47;;;17.50;99.90;;;;;;4936876;28;90305;-37
2022/05/11 07:48:04;;;;;;;7.53;2.90;;;17.30;99.90;;;;;;4936490;28;91239;-37
2022/05/11 07:50:31;;;;;;;6.78;2.45;;;17.40;99.90;;;;;;4937396;28;92150;-38
2022/05/11 07:52:57;;;;;;;6.53;3.70;;;17.40;99.90;;;;;;4937154;28;88722;-36
2022/05/11 07:55:25;;;;;;;8.80;2.83;;;17.40;99.90;;;;;;4937982;28;89569;-34
2022/05/11 08:00:36;;;;;;;17.50;2.47;;;17.40;99.90;;;;;;4937324;28;89852;-36
2022/05/11 08:03:03;;;;;;;5.32;2.60;;;17.40;99.90;;;;;;4940972;28;89504;-36
2022/05/11 08:05:30;;;;;;;11.48;3.13;;;17.50;99.90;;;;;;4923528;28;90259;-34
2022/05/11 08:07:58;;;;;;;5.33;2.40;;;17.50;99.90;;;;;;4938686;28;90079;-38
2022/05/11 08:10:29;;;;;;;6.90;2.75;;;17.50;99.90;;;;;;4939848;28;89656;-37
2022/05/11 08:12:54;;;;;;;3.42;2.65;;;17.40;99.90;;;;;;4939683;28;90559;-36
2022/05/11 08:15:22;;;;;;;6.18;3.00;;;17.70;99.90;;;;;;4939601;28;89038;-37
2022/05/11 08:17:49;;;;;;;9.55;2.65;;;18.10;99.90;;;;;;4940189;28;89859;-35
2022/05/11 08:20:22;;;;;;;8.27;2.60;;;18.30;99.90;;;;;;4940514;28;90406;-34
2022/05/11 08:22:48;;;;;;;4.10;2.22;;;18.70;99.90;;;;;;4922322;28;87981;-36
2022/05/11 08:25:19;;;;;;;6.88;2.22;;;18.90;99.90;;;;;;4922032;28;90298;-34
2022/05/11 08:27:45;;;;;;;4.38;2.17;;;19.10;98.70;;;;;;4922467;28;91206;-35
2022/05/11 08:35:43;;;;;;;9.55;3.28;;;19.00;95.60;;;;;;4939387;28;90176;-34
2022/05/11 08:38:11;;;;;;;5.10;2.53;;;19.00;99.40;;;;;;4938985;28;91098;-35
2022/05/11 08:40:39;;;;;;;7.05;2.42;;;19.20;94.30;;;;;;4938819;28;90306;-36
2022/05/11 08:43:14;;;;;;;3.38;1.60;;;19.40;92.30;;;;;;4940034;28;89330;-35
2022/05/11 08:45:58;;;;;;;7.25;2.03;;;19.40;83.80;;;;;;4939989;28;90520;-36
2022/05/11 08:49:00;;;;;;;10.50;2.58;;;19.50;85.30;;;;;;4939488;28;89831;-35
2022/05/11 08:51:31;;;;;;;7.97;2.50;;;19.80;88.90;;;;;;4936009;28;89692;-36
2022/05/11 08:54:35;;;;;;;5.28;2.80;;;19.60;80.20;;;;;;4939976;28;89816;-35
2022/05/11 08:57:05;;;;;;;5.35;2.25;;;20.10;88.50;;;;;;4935694;28;90370;-36
2022/05/11 08:59:32;;;;;;;9.75;2.33;;;20.30;90.40;;;;;;4939746;28;89803;-35
2022/05/11 09:02:14;;;;;;;7.00;2.40;;;20.20;74.00;;;;;;4938734;28;89613;-35
2022/05/11 09:04:49;;;;;;;12.50;2.70;;;20.20;71.50;;;;;;4939060;28;90080;-37
2022/05/11 09:07:15;;;;;;;14.52;2.80;;;20.40;71.70;;;;;;4939526;28;89350;-35
2022/05/11 09:09:40;;;;;;;4.78;1.80;;;20.70;71.20;;;;;;4921401;28;89994;-36
2022/05/11 09:12:08;;;;;;;24.40;3.65;;;20.70;69.70;;;;;;4938907;28;89705;-39
2022/05/11 09:14:38;;;;;;;9.52;1.75;;;20.30;70.70;;;;;;4938979;28;88190;-35
2022/05/11 09:17:08;;;;;;;6.28;3.22;;;20.40;70.10;;;;;;4938564;28;89536;-36
2022/05/11 09:19:35;;;;;;;12.07;1.92;;;20.40;71.50;;;;;;4939333;28;90543;-40
2022/05/11 09:22:12;;;;;;;7.35;2.78;;;20.50;71.80;;;;;;4939014;28;89779;-39
2022/05/11 09:24:50;;;;;;;;;;;20.60;69.20;;;;;;4940104;28;89707;-37
2022/05/11 09:27:36;;;;;;;18.20;4.63;;;20.30;68.70;;;;;;4940882;28;90332;-35
2022/05/11 09:30:27;;;;;;;6.18;2.10;;;20.10;70.90;;;;;;4938858;28;90877;-35
2022/05/11 09:33:14;;;;;;;4.82;2.08;;;20.30;70.90;;;;;;4939352;28;91482;-37
2022/05/11 09:35:40;;;;;;;11.93;2.13;;;20.60;74.80;;;;;;4938616;28;87647;-37
2022/05/11 09:38:17;;;;;;;5.20;2.25;;;20.70;73.50;;;;;;4938573;28;89349;-34
2022/05/11 09:40:55;;;;;;;3.67;2.55;;;20.60;73.20;;;;;;4938703;28;89698;-39
2022/05/11 09:43:33;;;;;;;10.15;6.22;;;20.80;73.60;;;;;;4939240;28;89286;-35
2022/05/11 09:45:59;;;;;;;22.88;3.22;;;20.90;78.10;;;;;;4938969;28;89577;-35
2022/05/11 09:48:31;;;;;;;6.20;2.25;;;20.70;69.50;;;;;;4938455;28;90324;-36
2022/05/11 09:51:21;;;;;;;3.20;2.25;;;20.50;80.10;;;;;;4938532;28;89488;-34
2022/05/11 09:53:54;;;;;;;10.50;3.47;;;20.30;75.80;;;;;;4939536;28;90166;-34
2022/05/11 09:56:28;;;;;;;3.90;2.10;;;20.90;68.50;;;;;;4937823;28;89873;-37
2022/05/11 09:58:54;;;;;;;5.85;2.58;;;20.70;64.40;;;;;;4938455;28;89241;-34
2022/05/11 10:01:28;;;;;;;7.28;2.38;;;20.60;64.50;;;;;;4938179;28;90001;-38
2022/05/11 10:04:04;;;;;;;4.00;1.58;;;20.90;66.20;;;;;;4938851;28;88644;-35
2022/05/11 10:06:34;;;;;;;10.60;2.60;;;21.00;61.10;;;;;;4937717;28;88723;-35
2022/05/11 10:09:01;;;;;;;1.77;1.48;;;20.90;60.20;;;;;;4938299;28;90250;-35
2022/05/11 10:11:42;;;;;;;4.53;1.95;;;21.00;61.10;;;;;;4938410;28;90294;-37
2022/05/11 10:22:54;;;;;;;4.40;2.03;;;21.50;63.20;;;;;;4936608;28;90665;-37
2022/05/11 10:25:27;;;;;;;4.28;2.75;;;21.30;62.60;;;;;;4939095;28;90531;-39
2022/05/11 10:28:21;;;;;;;4.90;1.85;;;20.90;63.50;;;;;;4938542;28;89647;-36
2022/05/11 10:30:49;;;;;;;13.85;2.25;;;20.60;60.20;;;;;;4937497;28;90344;-34
2022/05/11 10:33:40;;;;;;;3.08;1.55;;;20.80;63.20;;;;;;4937531;28;89321;-36
2022/05/11 10:36:29;;;;;;;8.88;2.70;;;20.70;59.70;;;;;;4937637;28;88570;-35
2022/05/11 10:39:27;;;;;;;2.08;1.42;;;20.90;59.50;;;;;;4938238;28;90211;-35
2022/05/11 10:42:13;;;;;;;2.55;1.52;;;21.10;62.70;;;;;;4937881;28;90987;-35
2022/05/11 10:44:44;;;;;;;3.35;1.98;;;20.80;60.30;;;;;;4937642;28;89572;-36
2022/05/11 10:47:25;;;;;;;7.65;2.15;;;21.00;60.20;;;;;;4937855;28;90616;-36
2022/05/11 10:50:21;;;;;;;2.80;1.42;;;21.60;62.10;;;;;;4938002;28;88749;-38
2022/05/11 10:53:00;;;;;;;8.32;1.90;;;21.50;57.70;;;;;;4937622;28;92830;-36
2022/05/11 10:55:45;;;;;;;3.20;1.55;;;21.20;57.50;;;;;;4937829;28;89365;-36
2022/05/11 10:58:36;;;;;;;4.38;1.70;;;21.30;58.00;;;;;;4937985;28;88931;-39
2022/05/11 11:01:11;;;;;;;4.20;1.73;;;21.60;58.60;;;;;;4933239;28;89604;-36
2022/05/11 11:04:00;;;;;;;17.90;4.45;;;21.50;56.90;;;;;;4936735;28;90327;-39
2022/05/11 11:09:44;;;;;;;9.25;2.63;;;21.40;56.10;;;;;;4937582;28;89414;-34
2022/05/11 11:12:26;;;;;;;2.17;1.13;;;21.40;55.30;;;;;;4927079;28;89980;-35
2022/05/11 11:14:55;;;;;;;9.05;2.40;;;21.70;56.20;;;;;;4937132;28;89407;-39
2022/05/11 11:17:23;;;;;;;3.22;1.35;;;21.60;54.80;;;;;;4935937;28;90622;-38
2022/05/11 11:19:52;;;;;;;5.13;1.35;;;21.40;54.40;;;;;;4937552;28;90474;-35
2022/05/11 11:22:18;;;;;;;4.95;2.08;;;21.40;54.50;;;;;;4938003;28;88517;-34
2022/05/11 11:25:22;;;;;;;2.80;1.45;;;21.30;55.70;;;;;;4937067;28;89721;-39
2022/05/11 11:28:10;;;;;;;3.75;1.52;;;21.40;56.00;;;;;;4936606;28;90007;-38
2022/05/11 11:30:37;;;;;;;8.98;2.08;;;21.70;56.60;;;;;;4936877;28;89428;-37
2022/05/11 11:33:15;;;;;;;4.80;1.65;;;21.60;58.80;;;;;;4937765;28;88231;-35
2022/05/11 11:35:59;;;;;;;7.30;1.52;;;22.10;56.80;;;;;;4936037;28;89918;-36
2022/05/11 11:38:30;;;;;;;1.75;1.02;;;22.10;55.60;;;;;;4939547;28;90661;-37
2022/05/11 11:41:19;;;;;;;6.88;1.20;;;21.90;54.10;;;;;;4922205;28;90386;-35
2022/05/11 11:43:57;;;;;;;1.65;1.08;;;21.90;55.80;;;;;;4938491;28;89456;-36
2022/05/11 11:46:43;;;;;;;4.57;1.48;;;22.30;56.30;;;;;;4940486;28;90418;-39
2022/05/11 11:49:18;;;;;;;3.13;1.33;;;22.10;55.50;;;;;;4940242;28;89558;-35
2022/05/11 11:52:07;;;;;;;4.68;1.88;;;22.10;55.20;;;;;;4940381;28;89838;-39
2022/05/11 11:54:43;;;;;;;2.47;1.40;;;22.00;55.40;;;;;;4941399;28;89341;-35
2022/05/11 11:57:14;;;;;;;1.98;1.33;;;21.70;55.60;;;;;;4939996;28;90190;-38
2022/05/11 11:59:47;;;;;;;9.02;2.10;;;22.20;55.60;;;;;;4922794;28;89358;-39
2022/05/11 12:02:28;;;;;;;4.43;1.60;;;22.30;55.30;;;;;;4940537;28;90389;-35
2022/05/11 12:05:24;;;;;;;6.40;2.75;;;22.40;55.60;;;;;;4939882;28;88191;-36
2022/05/11 12:16:20;;;;;;;10.50;1.30;;;22.30;56.70;;;;;;4925561;28;88845;-37
2022/05/11 12:18:47;;;;;;;12.23;2.42;;;22.30;55.90;;;;;;4939323;28;89282;-35
2022/05/11 12:21:29;;;;;;;10.15;2.78;;;22.50;55.80;;;;;;4939830;28;88354;-38
2022/05/11 12:23:57;;;;;;;9.70;2.17;;;22.50;55.40;;;;;;4939427;28;89851;-34
2022/05/11 12:26:28;;;;;;;;;;;22.30;56.60;;;;;;4923026;28;89943;-39
2022/05/11 12:29:54;;;;;;;4.53;1.60;;;22.00;56.10;;;;;;4940894;28;90591;-37
2022/05/11 12:31:53;;;;;;;23.48;4.45;;;22.00;57.70;;;;;;4939120;28;90670;-38
2022/05/11 12:34:28;;;;;;;9.40;2.72;;;21.90;56.00;;;;;;4939743;28;90712;-40
2022/05/11 12:36:55;;;;;;;8.40;2.00;;;22.00;56.70;;;;;;4938435;28;90187;-36
2022/05/11 12:39:38;;;;;;;4.72;2.40;;;22.00;56.00;;;;;;4938292;28;90400;-38
2022/05/11 12:42:05;;;;;;;15.43;2.90;;;22.20;56.80;;;;;;4955017;22;88373;-36
2022/05/11 12:44:34;;;;;;;3.00;1.33;;;22.30;54.80;;;;;;4939585;28;90982;-37
2022/05/11 12:47:01;;;;;;;8.02;2.30;;;22.40;54.70;;;;;;4938733;28;88429;-38
2022/05/11 12:49:28;;;;;;;10.77;2.80;;;22.30;55.30;;;;;;4938924;28;89900;-37
2022/05/11 12:51:57;;;;;;;3.55;2.25;;;22.20;53.40;;;;;;4922763;28;90174;-37
2022/05/11 12:54:27;;;;;;;55.72;8.45;;;22.40;54.20;;;;;;4939869;28;89970;-34
2022/05/11 12:57:11;;;;;;;5.07;1.85;;;22.40;54.00;;;;;;4939472;28;90668;-35
2022/05/11 12:59:38;;;;;;;4.13;1.88;;;22.60;54.90;;;;;;4939093;28;91289;-37
2022/05/11 13:02:21;;;;;;;17.80;4.53;;;22.50;53.40;;;;;;4939362;28;90756;-41
2022/05/11 13:04:51;;;;;;;5.22;2.22;;;22.40;53.40;;;;;;4939208;28;90558;-34
2022/05/11 13:07:19;;;;;;;5.40;2.22;;;22.40;54.80;;;;;;4938723;28;88553;-38
2022/05/11 13:09:47;;;;;;;;;;;22.40;53.80;;;;;;4939220;28;89665;-38
2022/05/11 13:12:14;;;;;;;7.43;1.85;;;22.40;54.20;;;;;;4940125;28;90238;-37
2022/05/11 13:14:55;;;;;;;25.88;3.13;;;22.40;54.10;;;;;;4939474;28;89605;-40
2022/05/11 13:17:25;;;;;;;18.27;3.45;;;22.60;54.70;;;;;;4938421;28;89350;-35
2022/05/11 13:19:58;;;;;;;13.48;3.08;;;22.70;53.00;;;;;;4938845;28;90076;-33
2022/05/11 13:22:25;;;;;;;35.40;7.93;;;22.50;49.30;;;;;;4939004;28;89800;-36
2022/05/11 13:24:54;;;;;;;7.72;2.22;;;22.30;50.10;;;;;;4938836;28;89485;-35
2022/05/11 13:27:43;;;;;;;25.02;4.20;;;22.20;50.80;;;;;;4920783;28;90289;-36
2022/05/11 13:30:45;;;;;;;19.00;3.88;;;22.50;51.90;;;;;;4938366;28;89416;-34
2022/05/11 13:33:29;;;;;;;45.20;7.80;;;22.80;52.40;;;;;;4939641;28;89980;-37
2022/05/11 13:36:09;;;;;;;9.63;2.20;;;22.50;50.70;;;;;;4938651;28;89460;-34
2022/05/11 13:38:35;;;;;;;19.58;3.90;;;22.50;52.40;;;;;;4939489;28;89923;-36
2022/05/11 13:41:03;;;;;;;3.08;1.85;;;22.60;51.80;;;;;;4938564;28;90475;-39
2022/05/11 13:43:32;;;;;;;9.65;2.10;;;22.40;53.10;;;;;;4938546;28;89702;-35
2022/05/11 13:46:07;;;;;;;65.15;11.75;;;22.60;52.60;;;;;;4938897;28;89931;-36
2022/05/11 13:48:45;;;;;;;40.63;6.32;;;22.40;53.30;;;;;;4937864;28;88991;-38
2022/05/11 13:51:17;;;;;;;;;;;22.20;54.40;;;;;;4938908;28;89744;-36
2022/05/11 13:53:45;;;;;;;38.67;8.38;;;22.30;54.90;;;;;;4939038;28;91810;-36